Time;durP1;ratioP1;P1;durP2;ratioP2;P2;SDS_P1;SDS_P2;PMS_P1;PMS_P2;Temp;Humidity;BMP_temperature;BMP_pressure;BME280_temperature;BME280_humidity;BME280_pressure;Samples;Min_cycle;Max_cycle;Signal;HPM_P1;HPM_P2
2023/03/20 00:01:23;;;;;;;0.82;0.80;;;8.50;99.90;;;;;;5095516;28;20025;-84
2023/03/20 00:03:52;;;;;;;0.50;0.50;;;8.40;99.90;;;;;;5079101;28;20503;-85
2023/03/20 00:06:22;;;;;;;0.10;0.10;;;8.50;99.90;;;;;;5101340;28;20043;-84
2023/03/20 00:08:51;;;;;;;0.10;0.10;;;8.60;99.90;;;;;;5096803;28;20039;-84
2023/03/20 00:11:27;;;;;;;0.73;0.73;;;8.70;99.90;;;;;;5099701;28;20093;-86
2023/03/20 00:14:11;;;;;;;1.02;0.68;;;8.70;99.90;;;;;;5091943;28;20035;-86
2023/03/20 00:16:39;;;;;;;0.75;0.30;;;8.50;99.90;;;;;;5089312;28;21091;-83
2023/03/20 00:19:06;;;;;;;0.82;0.82;;;8.50;99.90;;;;;;5092546;28;20089;-84
2023/03/20 00:21:33;;;;;;;0.10;0.10;;;8.40;99.90;;;;;;5100049;28;20032;-84
2023/03/20 00:23:59;;;;;;;0.40;0.40;;;8.40;99.90;;;;;;5103055;28;20060;-85
2023/03/20 00:26:35;;;;;;;0.10;0.10;;;8.40;99.90;;;;;;5097299;28;20020;-84
2023/03/20 00:29:03;;;;;;;4.60;0.35;;;8.30;99.90;;;;;;5090682;28;20081;-85
2023/03/20 00:31:37;;;;;;;0.10;0.10;;;8.30;99.90;;;;;;5094324;28;20047;-87
2023/03/20 00:34:06;;;;;;;0.10;0.10;;;8.30;99.90;;;;;;5098948;28;20470;-82
2023/03/20 00:36:32;;;;;;;0.20;0.20;;;8.30;99.90;;;;;;5080244;28;20518;-84
2023/03/20 00:38:58;;;;;;;0.30;0.30;;;8.40;99.90;;;;;;5095368;28;20094;-84
2023/03/20 00:41:32;;;;;;;0.38;0.38;;;8.30;99.90;;;;;;5094969;28;20035;-86
2023/03/20 00:44:18;;;;;;;0.68;0.68;;;8.30;99.90;;;;;;5082320;28;20266;-84
2023/03/20 00:46:46;;;;;;;0.10;0.10;;;8.20;99.90;;;;;;5087109;28;20028;-83
2023/03/20 00:49:11;;;;;;;0.50;0.50;;;8.30;99.90;;;;;;5088539;28;20070;-83
2023/03/20 00:51:38;;;;;;;0.35;0.35;;;8.30;99.90;;;;;;5086940;28;20119;-83
2023/03/20 00:54:15;;;;;;;0.10;0.10;;;8.30;99.90;;;;;;5096697;28;20019;-83
2023/03/20 00:56:45;;;;;;;0.10;0.10;;;8.20;99.90;;;;;;5089862;28;20128;-86
2023/03/20 00:59:18;;;;;;;0.77;0.77;;;8.20;99.90;;;;;;5089044;28;20562;-82
2023/03/20 01:01:44;;;;;;;0.17;0.17;;;8.20;99.90;;;;;;5090539;28;20118;-83
2023/03/20 01:04:16;;;;;;;0.10;0.10;;;8.30;99.90;;;;;;5098149;28;20099;-82
2023/03/20 01:06:42;;;;;;;0.17;0.17;;;8.20;99.90;;;;;;5101301;28;20559;-83
2023/03/20 01:09:09;;;;;;;0.17;0.17;;;8.10;99.90;;;;;;5097153;28;20098;-83
2023/03/20 01:11:36;;;;;;;0.30;0.30;;;8.10;99.90;;;;;;5092554;28;20042;-83
2023/03/20 01:14:02;;;;;;;;;;;8.10;99.90;;;;;;5093614;28;20023;-83
2023/03/20 01:16:28;;;;;;;0.10;0.10;;;8.20;99.90;;;;;;5095657;28;19919;-82
2023/03/20 01:18:54;;;;;;;0.20;0.20;;;8.30;99.90;;;;;;5094411;28;20581;-84
2023/03/20 01:21:20;;;;;;;0.10;0.10;;;8.20;99.90;;;;;;5095452;28;20146;-83
2023/03/20 01:23:47;;;;;;;0.25;0.25;;;8.20;99.90;;;;;;5094951;28;20071;-86
2023/03/20 01:26:35;;;;;;;0.10;0.10;;;8.20;99.90;;;;;;5099468;28;20704;-86
2023/03/20 01:29:35;;;;;;;0.10;0.10;;;8.30;99.90;;;;;;5085700;28;20035;-86
2023/03/20 01:32:01;;;;;;;0.20;0.20;;;8.20;99.90;;;;;;5091533;28;20024;-85
2023/03/20 01:34:27;;;;;;;0.10;0.10;;;8.20;99.90;;;;;;5099472;28;20094;-86
2023/03/20 01:36:55;;;;;;;0.15;0.15;;;8.20;99.90;;;;;;5095965;28;20023;-85
2023/03/20 01:39:27;;;;;;;0.55;0.55;;;8.20;99.90;;;;;;5100323;28;20035;-86
2023/03/20 01:41:53;;;;;;;0.10;0.10;;;8.20;99.90;;;;;;5101324;28;20051;-87
2023/03/20 01:44:22;;;;;;;0.10;0.10;;;8.30;99.90;;;;;;5078035;28;20123;-86
2023/03/20 01:46:51;;;;;;;0.10;0.10;;;8.20;99.90;;;;;;5094832;28;20020;-87
2023/03/20 01:49:20;;;;;;;0.20;0.20;;;8.10;99.90;;;;;;5098248;28;20034;-89
2023/03/20 01:51:47;;;;;;;0.10;0.10;;;8.20;99.90;;;;;;5098342;28;20047;-83
2023/03/20 01:54:26;;;;;;;0.10;0.10;;;8.00;99.90;;;;;;5102117;28;20861;-88
2023/03/20 01:57:01;;;;;;;0.43;0.38;;;8.00;99.90;;;;;;5102150;28;20065;-86
2023/03/20 01:59:48;;;;;;;0.15;0.15;;;8.00;99.90;;;;;;5091752;28;20028;-87
2023/03/20 02:02:18;;;;;;;0.10;0.10;;;8.00;99.90;;;;;;5096916;28;20027;-86
2023/03/20 02:04:47;;;;;;;0.10;0.10;;;7.90;99.90;;;;;;5099814;28;20594;-86
2023/03/20 02:07:17;;;;;;;0.20;0.20;;;7.90;99.90;;;;;;5099636;28;20045;-86
2023/03/20 02:09:42;;;;;;;0.20;0.20;;;7.90;99.90;;;;;;5098937;28;20494;-84
2023/03/20 02:12:09;;;;;;;0.10;0.10;;;7.80;99.90;;;;;;5090560;28;20121;-85
2023/03/20 02:14:35;;;;;;;;;;;7.90;99.90;;;;;;5093383;28;20024;-84
2023/03/20 02:17:05;;;;;;;0.10;0.10;;;7.90;99.90;;;;;;5088881;28;20381;-88
2023/03/20 02:19:36;;;;;;;0.50;0.47;;;7.90;99.90;;;;;;5085752;28;20093;-84
2023/03/20 02:22:29;;;;;;;0.30;0.30;;;7.90;99.90;;;;;;5094937;28;20030;-86
2023/03/20 02:25:16;;;;;;;0.10;0.10;;;7.80;99.90;;;;;;5095839;28;20016;-87
2023/03/20 02:28:06;;;;;;;0.52;0.52;;;7.90;99.90;;;;;;5095505;28;20024;-87
2023/03/20 02:31:16;;;;;;;31.25;0.85;;;7.90;99.90;;;;;;5092785;28;20046;-88
2023/03/20 02:34:01;;;;;;;0.30;0.30;;;7.80;99.90;;;;;;5102756;28;20027;-88
2023/03/20 02:36:56;;;;;;;0.20;0.20;;;7.80;99.90;;;;;;5098233;28;20115;-89
2023/03/20 02:39:46;;;;;;;0.10;0.10;;;7.70;99.90;;;;;;5102781;28;20024;-87
2023/03/20 02:42:25;;;;;;;0.20;0.20;;;7.70;99.90;;;;;;5094340;28;20028;-89
2023/03/20 02:45:09;;;;;;;1.05;0.98;;;7.80;99.90;;;;;;5097956;28;20114;-87
2023/03/20 02:47:55;;;;;;;0.52;0.38;;;7.60;99.90;;;;;;5098625;28;20016;-86
2023/03/20 02:50:39;;;;;;;0.30;0.30;;;7.50;99.90;;;;;;5090051;28;20059;-85
2023/03/20 02:53:17;;;;;;;0.10;0.10;;;7.60;99.90;;;;;;5095244;28;20028;-87
2023/03/20 02:55:46;;;;;;;0.10;0.10;;;7.60;99.90;;;;;;5092432;28;20830;-84
2023/03/20 02:58:29;;;;;;;0.45;0.45;;;7.50;99.90;;;;;;5102612;28;20031;-85
2023/03/20 03:01:10;;;;;;;0.40;0.40;;;7.60;99.90;;;;;;5096123;28;20020;-86
2023/03/20 03:03:42;;;;;;;0.10;0.10;;;7.80;99.90;;;;;;5085665;28;20086;-85
2023/03/20 03:06:13;;;;;;;0.32;0.32;;;7.70;99.90;;;;;;5091854;28;20474;-85
2023/03/20 03:08:44;;;;;;;0.20;0.20;;;7.70;99.90;;;;;;5090848;28;20035;-86
2023/03/20 03:11:09;;;;;;;0.10;0.10;;;7.70;99.90;;;;;;5091162;28;20111;-85
2023/03/20 03:13:41;;;;;;;0.20;0.20;;;7.60;99.90;;;;;;5095292;28;20036;-86
2023/03/20 03:16:15;;;;;;;0.10;0.10;;;7.70;99.90;;;;;;5100528;28;20047;-90
2023/03/20 03:18:43;;;;;;;0.10;0.10;;;7.90;99.90;;;;;;5094745;27;20024;-89
2023/03/20 03:21:10;;;;;;;0.25;0.25;;;7.70;99.90;;;;;;5092261;28;20050;-91
2023/03/20 03:23:47;;;;;;;0.10;0.10;;;7.90;99.90;;;;;;5090948;28;20028;-85
2023/03/20 03:26:24;;;;;;;0.20;0.20;;;8.00;99.90;;;;;;5094601;28;20036;-84
2023/03/20 03:29:00;;;;;;;0.10;0.10;;;8.00;99.90;;;;;;5088125;28;20032;-85
2023/03/20 03:31:28;;;;;;;0.20;0.20;;;7.90;99.90;;;;;;5099053;28;20043;-84
2023/03/20 03:33:56;;;;;;;0.10;0.10;;;8.00;99.90;;;;;;5090797;28;20028;-85
2023/03/20 03:36:34;;;;;;;0.57;0.57;;;7.90;99.90;;;;;;5092131;28;20082;-84
2023/03/20 03:39:19;;;;;;;0.20;0.20;;;7.80;99.90;;;;;;5101694;28;20034;-84
2023/03/20 03:41:48;;;;;;;0.10;0.10;;;7.90;99.90;;;;;;5092601;28;20078;-84
2023/03/20 03:44:29;;;;;;;0.20;0.20;;;7.80;99.90;;;;;;5098503;28;20102;-83
2023/03/20 03:47:20;;;;;;;0.17;0.17;;;7.90;99.90;;;;;;5097643;28;20024;-83
2023/03/20 03:49:57;;;;;;;0.10;0.10;;;7.90;99.90;;;;;;5084943;28;20051;-83
2023/03/20 03:52:25;;;;;;;0.13;0.13;;;7.80;99.90;;;;;;5094367;28;20063;-82
2023/03/20 03:54:53;;;;;;;0.10;0.10;;;7.90;99.90;;;;;;5097064;28;20106;-82
2023/03/20 03:57:33;;;;;;;0.30;0.30;;;7.90;99.90;;;;;;5098020;28;20074;-83
2023/03/20 04:00:04;;;;;;;0.10;0.10;;;7.90;99.90;;;;;;5089135;28;20045;-82
2023/03/20 04:02:31;;;;;;;0.10;0.10;;;7.90;99.90;;;;;;5097620;28;20028;-83
2023/03/20 04:04:58;;;;;;;0.20;0.20;;;7.80;99.90;;;;;;5096035;28;20077;-84
2023/03/20 04:07:27;;;;;;;0.75;0.75;;;7.90;99.90;;;;;;5091277;28;20034;-82
2023/03/20 04:09:53;;;;;;;0.30;0.30;;;8.00;99.90;;;;;;5094710;28;20098;-86
2023/03/20 04:12:37;;;;;;;4.38;1.20;;;7.90;99.90;;;;;;5094931;28;20043;-84
2023/03/20 04:15:04;;;;;;;0.10;0.10;;;7.90;99.90;;;;;;5095211;28;20070;-85
2023/03/20 04:17:30;;;;;;;;;;;7.90;99.90;;;;;;5100580;28;20610;-85
2023/03/20 04:19:56;;;;;;;0.10;0.10;;;7.90;99.90;;;;;;5096685;28;20030;-83
2023/03/20 04:22:22;;;;;;;0.10;0.10;;;7.80;99.90;;;;;;5099274;28;20715;-84
2023/03/20 04:24:48;;;;;;;0.10;0.10;;;7.90;99.90;;;;;;5090133;28;20038;-88
2023/03/20 04:27:14;;;;;;;0.10;0.10;;;7.90;99.90;;;;;;5090389;28;20048;-87
2023/03/20 04:29:40;;;;;;;0.10;0.10;;;7.80;99.90;;;;;;5098469;28;20822;-91
2023/03/20 04:32:06;;;;;;;0.25;0.25;;;7.60;99.90;;;;;;5100384;28;20046;-87
2023/03/20 04:34:31;;;;;;;0.10;0.10;;;7.60;99.90;;;;;;5095378;28;20606;-92
2023/03/20 04:36:59;;;;;;;0.10;0.10;;;7.60;99.90;;;;;;5081443;28;20028;-85
2023/03/20 04:39:25;;;;;;;0.25;0.25;;;7.60;99.90;;;;;;5096035;28;20047;-88
2023/03/20 04:41:51;;;;;;;0.10;0.10;;;7.50;99.90;;;;;;5094148;28;20024;-89
2023/03/20 04:44:17;;;;;;;0.10;0.10;;;7.30;99.90;;;;;;5100545;28;20136;-89
2023/03/20 04:46:42;;;;;;;0.10;0.10;;;7.50;99.90;;;;;;5089495;28;20497;-86
2023/03/20 04:49:08;;;;;;;0.10;0.10;;;7.80;99.90;;;;;;5098743;28;20035;-88
2023/03/20 04:51:34;;;;;;;0.10;0.10;;;7.80;99.90;;;;;;5094722;28;20031;-90
2023/03/20 04:53:59;;;;;;;0.10;0.10;;;7.60;99.90;;;;;;5100178;28;20027;-87
2023/03/20 04:56:25;;;;;;;0.10;0.10;;;7.60;99.90;;;;;;5088208;28;20373;-84
2023/03/20 04:58:51;;;;;;;0.35;0.35;;;7.60;99.90;;;;;;5096445;28;20023;-85
2023/03/20 05:01:17;;;;;;;0.10;0.10;;;7.60;99.90;;;;;;5098638;28;20032;-85
2023/03/20 05:03:42;;;;;;;0.10;0.10;;;7.60;99.90;;;;;;5077787;28;20044;-87
2023/03/20 05:06:09;;;;;;;0.10;0.10;;;7.60;99.90;;;;;;5085843;28;20036;-88
2023/03/20 05:08:34;;;;;;;0.35;0.28;;;7.60;99.90;;;;;;5102468;28;20030;-84
2023/03/20 05:11:00;;;;;;;0.10;0.10;;;7.60;99.90;;;;;;5092938;28;20466;-86
2023/03/20 05:13:26;;;;;;;0.10;0.10;;;7.60;99.90;;;;;;5094802;28;20035;-87
2023/03/20 05:15:51;;;;;;;0.10;0.10;;;7.40;99.90;;;;;;5089800;28;20028;-86
2023/03/20 05:18:17;;;;;;;0.52;0.43;;;7.40;99.90;;;;;;5098843;28;20039;-84
2023/03/20 05:20:43;;;;;;;0.10;0.10;;;7.50;99.90;;;;;;5098286;28;20106;-83
2023/03/20 05:23:09;;;;;;;0.10;0.10;;;7.50;99.90;;;;;;5084472;28;20032;-86
2023/03/20 05:25:34;;;;;;;0.10;0.10;;;7.30;99.90;;;;;;5090104;28;20027;-86
2023/03/20 05:28:00;;;;;;;0.10;0.10;;;7.30;99.90;;;;;;5099262;28;20099;-86
2023/03/20 05:30:26;;;;;;;0.35;0.32;;;7.40;99.90;;;;;;5090623;28;20063;-85
2023/03/20 05:32:51;;;;;;;0.00;0.00;;;7.40;99.90;;;;;;5091608;28;20044;-86
2023/03/20 05:35:18;;;;;;;0.03;0.03;;;7.30;99.90;;;;;;5094881;28;20032;-88
2023/03/20 05:37:44;;;;;;;0.10;0.10;;;7.30;99.90;;;;;;5096602;28;21382;-88
2023/03/20 05:40:13;;;;;;;0.10;0.10;;;7.20;99.90;;;;;;5098295;28;20760;-85
2023/03/20 05:42:39;;;;;;;0.10;0.10;;;7.10;99.90;;;;;;5100870;28;20031;-85
2023/03/20 05:45:06;;;;;;;0.10;0.10;;;7.20;99.90;;;;;;5092701;28;20082;-82
2023/03/20 05:47:32;;;;;;;0.20;0.20;;;7.20;99.90;;;;;;5094293;28;20031;-82
2023/03/20 05:49:57;;;;;;;0.10;0.10;;;7.10;99.90;;;;;;5096731;28;20498;-82
2023/03/20 05:52:23;;;;;;;0.10;0.10;;;6.90;99.90;;;;;;5088702;28;20043;-82
2023/03/20 05:54:49;;;;;;;0.10;0.10;;;6.80;99.90;;;;;;5089892;28;20035;-84
2023/03/20 05:57:14;;;;;;;0.38;0.38;;;6.80;99.90;;;;;;5095231;28;20550;-82
2023/03/20 05:59:40;;;;;;;1.45;0.75;;;6.70;99.90;;;;;;5098309;28;20032;-82
2023/03/20 06:02:06;;;;;;;0.20;0.20;;;6.60;99.90;;;;;;5104442;28;20036;-82
2023/03/20 06:04:33;;;;;;;0.10;0.10;;;6.80;99.90;;;;;;5097066;28;20048;-83
2023/03/20 06:06:59;;;;;;;0.20;0.20;;;6.70;99.90;;;;;;5083565;28;20024;-83
2023/03/20 06:09:25;;;;;;;0.50;0.50;;;6.80;99.90;;;;;;5092942;28;20027;-82
2023/03/20 06:11:51;;;;;;;0.10;0.10;;;6.80;99.90;;;;;;5095309;28;20028;-82
2023/03/20 06:14:16;;;;;;;0.50;0.50;;;6.80;99.90;;;;;;5093575;28;20028;-81
2023/03/20 06:16:42;;;;;;;0.10;0.10;;;7.20;99.90;;;;;;5093863;28;20550;-82
2023/03/20 06:19:08;;;;;;;0.10;0.10;;;7.50;99.90;;;;;;5096081;28;20036;-80
2023/03/20 06:21:33;;;;;;;0.82;0.82;;;8.00;99.90;;;;;;5079929;28;20050;-84
2023/03/20 06:23:59;;;;;;;1.30;1.23;;;8.70;99.90;;;;;;5099637;28;20038;-81
2023/03/20 06:26:25;;;;;;;0.65;0.65;;;8.60;99.90;;;;;;5100557;28;20407;-81
2023/03/20 06:28:51;;;;;;;0.10;0.10;;;9.50;99.90;;;;;;5097807;28;20089;-81
2023/03/20 06:31:16;;;;;;;0.55;0.55;;;10.00;99.90;;;;;;5084167;28;20032;-82
2023/03/20 06:33:43;;;;;;;0.10;0.10;;;10.50;99.60;;;;;;5085440;28;20573;-82
2023/03/20 06:36:09;;;;;;;0.20;0.20;;;10.70;98.80;;;;;;5102192;28;20110;-81
2023/03/20 06:38:34;;;;;;;0.00;0.00;;;10.70;98.30;;;;;;5101413;28;20032;-82
2023/03/20 06:41:00;;;;;;;0.10;0.10;;;11.10;98.20;;;;;;5097737;27;20024;-82
2023/03/20 06:43:26;;;;;;;0.55;0.55;;;11.20;97.60;;;;;;5100652;28;20074;-80
2023/03/20 06:45:52;;;;;;;1.05;0.73;;;11.40;97.60;;;;;;5090902;28;20020;-79
2023/03/20 06:48:20;;;;;;;0.00;0.00;;;11.30;97.20;;;;;;5083432;28;20135;-80
2023/03/20 06:50:47;;;;;;;0.00;0.00;;;11.10;96.90;;;;;;5092939;28;20032;-80
2023/03/20 06:53:13;;;;;;;;;;;11.20;97.60;;;;;;5083379;28;20036;-80
2023/03/20 06:55:39;;;;;;;0.00;0.00;;;11.50;97.10;;;;;;5095266;28;19932;-78
2023/03/20 06:58:04;;;;;;;0.50;0.50;;;12.20;96.10;;;;;;5101794;28;20106;-80
2023/03/20 07:00:31;;;;;;;0.17;0.17;;;12.20;95.50;;;;;;5103323;28;20867;-79
2023/03/20 07:02:57;;;;;;;0.10;0.10;;;12.50;95.00;;;;;;5101031;28;20050;-80
2023/03/20 07:05:23;;;;;;;0.20;0.13;;;12.40;94.50;;;;;;5086245;28;20036;-81
2023/03/20 07:07:48;;;;;;;0.20;0.20;;;12.20;95.10;;;;;;5100175;28;20031;-81
2023/03/20 07:10:14;;;;;;;0.10;0.10;;;12.00;96.00;;;;;;5104115;28;20027;-81
2023/03/20 07:12:40;;;;;;;0.00;0.00;;;12.30;95.70;;;;;;5101126;28;20027;-80
2023/03/20 07:15:06;;;;;;;0.10;0.10;;;12.50;95.60;;;;;;5102997;28;20629;-80
2023/03/20 07:17:32;;;;;;;1.40;0.85;;;12.50;95.50;;;;;;5102849;28;20016;-79
2023/03/20 07:19:57;;;;;;;0.10;0.10;;;13.00;94.70;;;;;;5096793;28;20032;-80
2023/03/20 07:22:27;;;;;;;0.77;0.77;;;13.10;94.50;;;;;;5103454;28;20031;-80
2023/03/20 07:24:53;;;;;;;5.75;0.63;;;13.30;94.80;;;;;;5068063;27;20028;-80
2023/03/20 07:27:19;;;;;;;0.00;0.00;;;12.80;94.20;;;;;;5091812;27;20031;-79
2023/03/20 07:29:45;;;;;;;0.00;0.00;;;13.20;95.00;;;;;;5100606;28;20572;-80
2023/03/20 07:32:11;;;;;;;0.10;0.10;;;13.20;94.60;;;;;;5094379;28;20028;-80
2023/03/20 07:34:37;;;;;;;0.10;0.10;;;13.80;93.30;;;;;;5071422;28;20035;-80
2023/03/20 07:37:03;;;;;;;0.00;0.00;;;14.00;92.80;;;;;;5094742;28;20052;-80
2023/03/20 07:39:29;;;;;;;0.00;0.00;;;13.50;92.90;;;;;;5096608;28;20023;-79
2023/03/20 07:41:55;;;;;;;0.00;0.00;;;13.90;92.60;;;;;;5099478;28;20085;-79
2023/03/20 07:44:21;;;;;;;0.23;0.23;;;13.90;91.50;;;;;;5085354;28;20035;-79
2023/03/20 07:46:46;;;;;;;0.00;0.00;;;14.10;91.80;;;;;;5103636;28;20073;-79
2023/03/20 07:49:13;;;;;;;0.73;0.63;;;14.50;91.00;;;;;;5077147;28;20043;-80
2023/03/20 07:51:39;;;;;;;;;;;13.70;91.10;;;;;;5078958;28;20040;-80
2023/03/20 07:54:05;;;;;;;3.97;0.87;;;14.00;91.70;;;;;;5098610;28;19933;-79
2023/03/20 07:56:31;;;;;;;0.00;0.00;;;14.20;90.30;;;;;;5089988;28;20039;-80
2023/03/20 07:58:56;;;;;;;0.30;0.30;;;14.40;90.50;;;;;;5090756;28;20040;-79
2023/03/20 08:01:22;;;;;;;2.40;1.30;;;15.10;87.70;;;;;;5100616;28;20058;-80
2023/03/20 08:03:48;;;;;;;0.20;0.20;;;15.40;86.90;;;;;;5102700;28;20078;-80
2023/03/20 08:06:14;;;;;;;0.10;0.10;;;15.60;84.40;;;;;;5090665;28;20061;-80
2023/03/20 08:08:39;;;;;;;0.00;0.00;;;15.20;84.30;;;;;;5083632;28;20027;-79
2023/03/20 08:11:05;;;;;;;0.00;0.00;;;15.40;84.60;;;;;;5098926;28;20028;-80
2023/03/20 08:13:31;;;;;;;0.10;0.10;;;15.20;83.80;;;;;;5073991;28;20127;-80
2023/03/20 08:15:57;;;;;;;0.00;0.00;;;15.20;85.40;;;;;;5100925;28;20028;-79
2023/03/20 08:18:23;;;;;;;0.10;0.10;;;15.20;82.70;;;;;;5091918;28;20114;-79
2023/03/20 08:20:49;;;;;;;0.00;0.00;;;15.40;83.00;;;;;;5074687;28;20097;-79
2023/03/20 08:23:15;;;;;;;0.00;0.00;;;15.20;84.60;;;;;;5093382;28;20020;-80
2023/03/20 08:25:46;;;;;;;;;;;15.00;83.20;;;;;;5094752;28;20024;-80
2023/03/20 08:28:11;;;;;;;0.00;0.00;;;15.20;83.60;;;;;;5096457;28;19915;-79
2023/03/20 08:30:37;;;;;;;0.97;0.53;;;15.40;82.40;;;;;;5085201;28;20099;-80
2023/03/20 08:33:03;;;;;;;0.00;0.00;;;15.80;80.70;;;;;;5086472;28;20043;-79
2023/03/20 08:35:29;;;;;;;0.00;0.00;;;15.80;79.60;;;;;;5077686;28;20441;-79
2023/03/20 08:37:54;;;;;;;0.00;0.00;;;16.80;78.90;;;;;;5098463;28;20028;-79
2023/03/20 08:40:20;;;;;;;4.10;1.20;;;18.50;75.50;;;;;;5096629;28;20917;-79
2023/03/20 08:42:46;;;;;;;0.03;0.03;;;18.60;73.50;;;;;;5083822;28;20388;-80
2023/03/20 08:45:12;;;;;;;0.00;0.00;;;18.10;72.70;;;;;;5097066;28;20146;-80
2023/03/20 08:47:38;;;;;;;;;;;18.80;69.50;;;;;;5084362;28;20023;-80
2023/03/20 08:50:04;;;;;;;0.00;0.00;;;18.60;71.10;;;;;;5083262;28;19914;-79
2023/03/20 08:52:30;;;;;;;0.00;0.00;;;18.80;71.70;;;;;;5096712;28;20064;-80
2023/03/20 08:54:56;;;;;;;0.00;0.00;;;20.50;68.20;;;;;;5092084;28;20494;-80
2023/03/20 08:57:22;;;;;;;0.45;0.45;;;19.80;67.40;;;;;;5088605;28;20032;-79
2023/03/20 08:59:47;;;;;;;0.00;0.00;;;19.10;69.20;;;;;;5097698;28;20870;-79
2023/03/20 09:02:13;;;;;;;0.30;0.30;;;17.60;67.60;;;;;;5084136;28;20494;-80
2023/03/20 09:04:39;;;;;;;0.00;0.00;;;17.90;68.30;;;;;;5086101;28;20060;-80
2023/03/20 09:07:06;;;;;;;0.10;0.10;;;15.80;73.20;;;;;;5095079;28;20537;-79
2023/03/20 09:09:32;;;;;;;;;;;18.00;71.50;;;;;;5086399;28;20031;-79
2023/03/20 09:11:58;;;;;;;0.35;0.13;;;18.90;68.80;;;;;;5077479;28;19913;-79
2023/03/20 09:14:26;;;;;;;0.20;0.20;;;16.50;68.90;;;;;;5070731;28;20032;-80
2023/03/20 09:16:52;;;;;;;0.15;0.15;;;17.20;71.60;;;;;;5069949;28;20813;-79
2023/03/20 09:19:19;;;;;;;1.35;0.47;;;17.90;68.30;;;;;;5081932;28;20024;-80
2023/03/20 09:21:46;;;;;;;0.10;0.10;;;16.90;70.10;;;;;;5099820;28;20059;-79
2023/03/20 09:24:12;;;;;;;0.00;0.00;;;17.00;67.90;;;;;;5102942;28;20086;-79
2023/03/20 09:26:38;;;;;;;0.10;0.10;;;16.70;70.10;;;;;;5093421;28;20510;-80
2023/03/20 09:29:05;;;;;;;0.00;0.00;;;17.40;71.00;;;;;;5101506;28;20062;-79
2023/03/20 09:31:31;;;;;;;0.00;0.00;;;17.30;68.10;;;;;;5070494;28;20031;-79
2023/03/20 09:33:56;;;;;;;0.30;0.30;;;14.20;72.60;;;;;;5092179;28;20035;-79
2023/03/20 09:36:22;;;;;;;0.43;0.43;;;13.00;77.80;;;;;;5090259;28;20116;-79
2023/03/20 09:38:48;;;;;;;1.40;0.77;;;14.20;76.70;;;;;;5102218;28;20103;-79
2023/03/20 09:41:20;;;;;;;0.33;0.33;;;15.00;73.20;;;;;;5099702;28;20016;-79
2023/03/20 09:44:07;;;;;;;0.10;0.10;;;13.60;76.90;;;;;;5094342;28;20504;-79
2023/03/20 09:46:54;;;;;;;0.00;0.00;;;14.00;77.00;;;;;;5085876;28;20066;-80
2023/03/20 09:49:44;;;;;;;0.00;0.00;;;15.70;73.50;;;;;;5099740;28;20028;-79
2023/03/20 09:52:45;;;;;;;0.43;0.35;;;16.40;73.30;;;;;;5093578;28;20035;-79
2023/03/20 09:55:17;;;;;;;0.52;0.52;;;17.90;68.60;;;;;;5089619;28;20098;-79
2023/03/20 09:57:50;;;;;;;0.35;0.35;;;16.70;68.20;;;;;;5096662;28;20027;-80
2023/03/20 10:00:27;;;;;;;1.90;1.02;;;14.50;71.50;;;;;;5091162;28;20028;-79
2023/03/20 10:03:14;;;;;;;0.40;0.40;;;13.70;75.50;;;;;;5097081;28;20019;-79
2023/03/20 10:06:05;;;;;;;0.10;0.10;;;14.00;76.10;;;;;;5084111;28;20035;-79
2023/03/20 10:08:37;;;;;;;1.33;0.77;;;13.50;74.60;;;;;;5090132;28;20088;-79
2023/03/20 10:11:17;;;;;;;0.20;0.20;;;13.20;74.90;;;;;;5100638;28;20050;-79
2023/03/20 10:14:17;;;;;;;0.00;0.00;;;14.20;75.10;;;;;;5097322;28;20147;-79
2023/03/20 10:16:51;;;;;;;0.00;0.00;;;15.40;67.60;;;;;;5090097;28;20028;-79
2023/03/20 10:20:02;;;;;;;0.10;0.10;;;15.40;67.30;;;;;;5101829;28;20034;-79
2023/03/20 10:22:33;;;;;;;0.10;0.10;;;15.20;68.10;;;;;;5067061;28;20522;-79
2023/03/20 10:25:43;;;;;;;0.73;0.63;;;16.30;67.20;;;;;;5099384;28;20031;-80
2023/03/20 10:28:20;;;;;;;0.38;0.38;;;15.90;72.10;;;;;;5095609;28;20046;-79
2023/03/20 10:31:07;;;;;;;0.20;0.20;;;15.30;64.90;;;;;;5072716;28;20380;-79
2023/03/20 10:34:13;;;;;;;0.30;0.30;;;15.00;68.80;;;;;;5088688;28;20569;-79
2023/03/20 10:36:53;;;;;;;0.47;0.35;;;14.60;68.30;;;;;;5056244;28;20043;-80
2023/03/20 10:39:49;;;;;;;0.00;0.00;;;14.80;67.10;;;;;;5091809;28;20024;-79
2023/03/20 10:42:24;;;;;;;;;;;14.30;65.80;;;;;;5095071;28;20019;-80
2023/03/20 10:44:56;;;;;;;0.00;0.00;;;14.90;66.20;;;;;;5091599;28;19911;-79
2023/03/20 10:47:25;;;;;;;0.05;0.05;;;14.90;67.10;;;;;;5094603;28;20028;-79
2023/03/20 10:50:01;;;;;;;0.28;0.15;;;15.40;67.00;;;;;;5101794;28;20046;-79
2023/03/20 10:52:32;;;;;;;0.00;0.00;;;14.80;65.40;;;;;;5084254;28;20047;-79
2023/03/20 10:55:07;;;;;;;0.10;0.10;;;14.50;69.80;;;;;;5091822;28;20028;-79
2023/03/20 10:57:37;;;;;;;0.25;0.25;;;14.20;68.80;;;;;;5075527;28;20024;-80
2023/03/20 11:00:09;;;;;;;0.10;0.10;;;14.20;71.70;;;;;;5073472;28;20024;-80
2023/03/20 11:02:36;;;;;;;0.00;0.00;;;14.30;69.60;;;;;;5094473;28;20031;-79
2023/03/20 11:05:32;;;;;;;0.05;0.05;;;14.00;71.60;;;;;;5101673;28;20035;-79
2023/03/20 11:08:12;;;;;;;0.10;0.10;;;13.80;70.00;;;;;;5088119;28;20564;-79
2023/03/20 11:10:40;;;;;;;0.20;0.20;;;14.50;73.00;;;;;;5095531;28;20058;-80
2023/03/20 11:13:25;;;;;;;0.22;0.22;;;15.10;70.50;;;;;;5094777;28;20043;-80
2023/03/20 11:15:52;;;;;;;0.10;0.10;;;14.40;71.50;;;;;;5068181;28;20126;-79
2023/03/20 11:18:18;;;;;;;0.00;0.00;;;14.60;73.10;;;;;;5102885;28;20096;-79
2023/03/20 11:20:55;;;;;;;1.55;0.80;;;14.10;69.40;;;;;;5102235;28;20094;-80
2023/03/20 11:23:29;;;;;;;0.00;0.00;;;14.00;71.40;;;;;;5082102;28;20036;-80
2023/03/20 11:25:59;;;;;;;0.00;0.00;;;14.70;69.30;;;;;;5104222;28;20028;-80
2023/03/20 11:28:35;;;;;;;0.13;0.13;;;14.50;67.90;;;;;;5095006;28;20066;-79
2023/03/20 11:31:05;;;;;;;0.20;0.20;;;14.50;68.40;;;;;;5103636;28;20085;-80
2023/03/20 11:33:35;;;;;;;0.00;0.00;;;14.10;67.30;;;;;;5102474;28;20044;-80
2023/03/20 11:36:01;;;;;;;0.30;0.28;;;14.40;72.40;;;;;;5090548;28;20032;-80
2023/03/20 11:38:30;;;;;;;0.37;0.37;;;14.40;69.20;;;;;;5102723;28;20390;-79
2023/03/20 11:40:56;;;;;;;0.30;0.30;;;14.40;67.90;;;;;;5103976;28;20031;-80
2023/03/20 11:43:25;;;;;;;0.10;0.10;;;14.50;69.80;;;;;;5100397;28;20024;-79
2023/03/20 11:45:56;;;;;;;0.00;0.00;;;14.40;68.20;;;;;;5085763;28;20122;-79
2023/03/20 11:48:40;;;;;;;0.15;0.15;;;14.40;70.80;;;;;;5092666;28;20035;-79
2023/03/20 11:51:09;;;;;;;0.10;0.10;;;14.30;68.20;;;;;;5090788;28;20024;-79
2023/03/20 11:53:40;;;;;;;0.15;0.15;;;14.40;72.50;;;;;;5091050;28;20024;-80
2023/03/20 11:56:36;;;;;;;0.35;0.35;;;14.30;72.50;;;;;;5091578;28;20056;-79
2023/03/20 11:59:18;;;;;;;0.03;0.03;;;14.40;75.60;;;;;;5088371;28;20044;-79
2023/03/20 12:01:54;;;;;;;0.10;0.10;;;14.50;74.80;;;;;;5097746;28;20024;-79
2023/03/20 12:04:41;;;;;;;0.00;0.00;;;14.60;72.50;;;;;;5097357;28;20052;-79
2023/03/20 12:07:24;;;;;;;0.47;0.40;;;14.10;67.50;;;;;;5075045;28;20038;-79
2023/03/20 12:09:57;;;;;;;0.10;0.10;;;14.10;66.90;;;;;;5097681;28;20035;-79
2023/03/20 12:12:37;;;;;;;0.20;0.20;;;13.90;70.20;;;;;;5076271;28;20051;-80
2023/03/20 12:15:02;;;;;;;0.10;0.10;;;13.90;68.00;;;;;;5078349;28;20024;-80
2023/03/20 12:17:34;;;;;;;0.40;0.40;;;14.10;71.60;;;;;;5096045;28;20024;-80
2023/03/20 12:20:21;;;;;;;0.00;0.00;;;13.90;68.20;;;;;;5080979;28;20082;-79
2023/03/20 12:23:01;;;;;;;0.10;0.10;;;14.10;64.50;;;;;;5081906;28;20490;-79
2023/03/20 12:25:35;;;;;;;0.10;0.10;;;13.90;67.00;;;;;;5091093;28;20038;-79
2023/03/20 12:28:37;;;;;;;0.20;0.20;;;14.00;68.00;;;;;;5100959;28;20020;-79
2023/03/20 12:31:16;;;;;;;0.20;0.20;;;13.60;64.60;;;;;;5096252;28;20039;-79
2023/03/20 12:34:03;;;;;;;0.00;0.00;;;13.80;65.80;;;;;;5085435;28;20727;-80
2023/03/20 12:36:42;;;;;;;1.80;1.02;;;14.00;67.30;;;;;;5087211;28;20031;-79
2023/03/20 12:39:14;;;;;;;0.00;0.00;;;13.60;67.30;;;;;;5096435;27;20055;-80
2023/03/20 12:41:58;;;;;;;0.40;0.40;;;13.50;67.30;;;;;;5076288;28;20506;-80
2023/03/20 12:44:32;;;;;;;0.10;0.10;;;13.50;65.60;;;;;;5096494;28;20490;-79
2023/03/20 12:47:38;;;;;;;0.57;0.47;;;13.60;67.60;;;;;;5098879;28;20032;-79
2023/03/20 12:50:30;;;;;;;0.10;0.10;;;13.80;69.70;;;;;;5102216;28;20031;-79
2023/03/20 12:53:16;;;;;;;0.10;0.10;;;13.70;66.50;;;;;;5100130;28;20034;-80
2023/03/20 12:56:14;;;;;;;0.17;0.17;;;13.70;66.00;;;;;;5077293;28;20372;-80
2023/03/20 12:58:46;;;;;;;0.00;0.00;;;13.90;70.70;;;;;;5078975;28;20443;-80
2023/03/20 13:01:14;;;;;;;0.00;0.00;;;13.80;65.60;;;;;;5099981;28;20271;-80
2023/03/20 13:04:18;;;;;;;0.10;0.10;;;13.80;67.50;;;;;;5092350;28;20054;-79
2023/03/20 13:07:01;;;;;;;0.00;0.00;;;13.80;66.60;;;;;;5088279;28;20069;-79
2023/03/20 13:09:56;;;;;;;0.00;0.00;;;13.90;68.80;;;;;;5089369;28;20039;-80
2023/03/20 13:13:04;;;;;;;0.22;0.22;;;13.80;69.00;;;;;;5086811;28;20494;-80
2023/03/20 13:15:49;;;;;;;0.10;0.10;;;13.60;64.40;;;;;;5066009;28;20115;-79
2023/03/20 13:18:40;;;;;;;0.88;0.40;;;13.40;66.10;;;;;;5093219;28;20126;-80
2023/03/20 13:21:14;;;;;;;0.00;0.00;;;13.60;65.20;;;;;;5099674;28;20051;-79